sensor_id;sensor_type;location;lat;lon;timestamp;P1;durP1;ratioP1;P2;durP2;ratioP2
28988;SDS011;16089;59.952;10.818;2022-11-30T00:01:53;5.05;;;2.70;;
28988;SDS011;16089;59.952;10.818;2022-11-30T00:04:19;5.78;;;3.00;;
28988;SDS011;16089;59.952;10.818;2022-11-30T00:06:45;5.13;;;2.95;;
28988;SDS011;16089;59.952;10.818;2022-11-30T00:09:11;5.13;;;2.88;;
28988;SDS011;16089;59.952;10.818;2022-11-30T00:11:39;4.75;;;2.83;;
28988;SDS011;16089;59.952;10.818;2022-11-30T00:14:06;5.47;;;3.45;;
28988;SDS011;16089;59.952;10.818;2022-11-30T00:16:33;5.15;;;2.92;;
28988;SDS011;16089;59.952;10.818;2022-11-30T00:18:59;5.63;;;2.80;;
28988;SDS011;16089;59.952;10.818;2022-11-30T00:21:25;6.05;;;2.78;;
28988;SDS011;16089;59.952;10.818;2022-11-30T00:23:52;3.75;;;2.33;;
28988;SDS011;16089;59.952;10.818;2022-11-30T00:26:18;5.18;;;2.92;;
28988;SDS011;16089;59.952;10.818;2022-11-30T00:28:46;5.28;;;2.90;;
28988;SDS011;16089;59.952;10.818;2022-11-30T00:31:14;6.07;;;3.33;;
28988;SDS011;16089;59.952;10.818;2022-11-30T00:33:41;4.70;;;2.63;;
28988;SDS011;16089;59.952;10.818;2022-11-30T00:36:09;5.40;;;2.90;;
28988;SDS011;16089;59.952;10.818;2022-11-30T00:38:35;4.72;;;2.80;;
28988;SDS011;16089;59.952;10.818;2022-11-30T00:41:02;5.40;;;3.00;;
28988;SDS011;16089;59.952;10.818;2022-11-30T00:43:29;4.85;;;2.80;;
28988;SDS011;16089;59.952;10.818;2022-11-30T00:45:55;5.90;;;3.20;;
28988;SDS011;16089;59.952;10.818;2022-11-30T00:48:23;5.22;;;3.10;;
28988;SDS011;16089;59.952;10.818;2022-11-30T00:50:49;7.15;;;3.47;;
28988;SDS011;16089;59.952;10.818;2022-11-30T00:53:16;5.40;;;3.28;;
28988;SDS011;16089;59.952;10.818;2022-11-30T00:55:42;5.70;;;3.25;;
28988;SDS011;16089;59.952;10.818;2022-11-30T00:58:09;5.22;;;3.10;;
28988;SDS011;16089;59.952;10.818;2022-11-30T01:00:36;5.97;;;3.40;;
28988;SDS011;16089;59.952;10.818;2022-11-30T01:03:02;4.65;;;2.83;;
28988;SDS011;16089;59.952;10.818;2022-11-30T01:05:30;4.93;;;2.80;;
28988;SDS011;16089;59.952;10.818;2022-11-30T01:07:58;6.45;;;3.25;;
28988;SDS011;16089;59.952;10.818;2022-11-30T01:10:24;5.45;;;3.38;;
28988;SDS011;16089;59.952;10.818;2022-11-30T01:12:50;7.45;;;3.03;;
28988;SDS011;16089;59.952;10.818;2022-11-30T01:15:17;5.10;;;3.20;;
28988;SDS011;16089;59.952;10.818;2022-11-30T01:17:43;5.72;;;3.45;;
28988;SDS011;16089;59.952;10.818;2022-11-30T01:20:09;5.97;;;3.03;;
28988;SDS011;16089;59.952;10.818;2022-11-30T01:22:37;6.40;;;3.40;;
28988;SDS011;16089;59.952;10.818;2022-11-30T01:25:04;4.60;;;2.75;;
28988;SDS011;16089;59.952;10.818;2022-11-30T01:27:30;5.50;;;3.40;;
28988;SDS011;16089;59.952;10.818;2022-11-30T01:29:56;5.90;;;2.97;;
28988;SDS011;16089;59.952;10.818;2022-11-30T01:32:23;5.63;;;3.08;;
28988;SDS011;16089;59.952;10.818;2022-11-30T01:34:49;6.35;;;3.38;;
28988;SDS011;16089;59.952;10.818;2022-11-30T01:37:15;5.63;;;3.47;;
28988;SDS011;16089;59.952;10.818;2022-11-30T01:39:43;5.30;;;3.17;;
28988;SDS011;16089;59.952;10.818;2022-11-30T01:42:12;6.13;;;3.45;;
28988;SDS011;16089;59.952;10.818;2022-11-30T01:44:47;5.15;;;3.20;;
28988;SDS011;16089;59.952;10.818;2022-11-30T01:47:14;7.15;;;3.85;;
28988;SDS011;16089;59.952;10.818;2022-11-30T01:49:40;6.45;;;3.00;;
28988;SDS011;16089;59.952;10.818;2022-11-30T01:52:09;7.53;;;4.47;;
28988;SDS011;16089;59.952;10.818;2022-11-30T01:54:37;6.13;;;3.30;;
28988;SDS011;16089;59.952;10.818;2022-11-30T01:57:07;5.78;;;3.40;;
28988;SDS011;16089;59.952;10.818;2022-11-30T01:59:35;4.90;;;2.95;;
28988;SDS011;16089;59.952;10.818;2022-11-30T02:02:02;5.38;;;3.00;;
28988;SDS011;16089;59.952;10.818;2022-11-30T02:04:29;5.93;;;3.50;;
28988;SDS011;16089;59.952;10.818;2022-11-30T02:06:56;5.88;;;3.40;;
28988;SDS011;16089;59.952;10.818;2022-11-30T02:09:23;6.20;;;3.50;;
28988;SDS011;16089;59.952;10.818;2022-11-30T02:11:49;4.75;;;2.90;;
28988;SDS011;16089;59.952;10.818;2022-11-30T02:14:21;5.88;;;3.45;;
28988;SDS011;16089;59.952;10.818;2022-11-30T02:16:51;6.18;;;3.22;;
28988;SDS011;16089;59.952;10.818;2022-11-30T02:19:26;5.72;;;3.42;;
28988;SDS011;16089;59.952;10.818;2022-11-30T02:21:59;5.93;;;2.90;;
28988;SDS011;16089;59.952;10.818;2022-11-30T02:24:39;5.32;;;2.92;;
28988;SDS011;16089;59.952;10.818;2022-11-30T02:27:17;4.50;;;2.80;;
28988;SDS011;16089;59.952;10.818;2022-11-30T02:32:15;6.57;;;2.97;;
28988;SDS011;16089;59.952;10.818;2022-11-30T02:34:42;5.18;;;2.92;;
28988;SDS011;16089;59.952;10.818;2022-11-30T02:37:09;7.00;;;3.00;;
28988;SDS011;16089;59.952;10.818;2022-11-30T02:39:37;5.20;;;3.10;;
28988;SDS011;16089;59.952;10.818;2022-11-30T02:42:04;6.63;;;2.83;;
28988;SDS011;16089;59.952;10.818;2022-11-30T02:44:31;5.00;;;2.80;;
28988;SDS011;16089;59.952;10.818;2022-11-30T02:47:03;4.88;;;3.00;;
28988;SDS011;16089;59.952;10.818;2022-11-30T02:49:34;4.93;;;2.83;;
28988;SDS011;16089;59.952;10.818;2022-11-30T02:52:02;5.40;;;2.80;;
28988;SDS011;16089;59.952;10.818;2022-11-30T02:54:30;5.07;;;2.65;;
28988;SDS011;16089;59.952;10.818;2022-11-30T02:56:56;4.43;;;2.50;;
28988;SDS011;16089;59.952;10.818;2022-11-30T02:59:22;4.93;;;2.63;;
28988;SDS011;16089;59.952;10.818;2022-11-30T03:01:49;4.72;;;2.88;;
28988;SDS011;16089;59.952;10.818;2022-11-30T03:04:15;4.35;;;2.38;;
28988;SDS011;16089;59.952;10.818;2022-11-30T03:06:43;6.18;;;2.90;;
28988;SDS011;16089;59.952;10.818;2022-11-30T03:09:09;5.85;;;3.13;;
28988;SDS011;16089;59.952;10.818;2022-11-30T03:11:35;5.18;;;3.10;;
28988;SDS011;16089;59.952;10.818;2022-11-30T03:14:02;5.28;;;3.13;;
28988;SDS011;16089;59.952;10.818;2022-11-30T03:16:28;5.40;;;2.92;;
28988;SDS011;16089;59.952;10.818;2022-11-30T03:18:55;4.53;;;2.60;;
28988;SDS011;16089;59.952;10.818;2022-11-30T03:21:22;4.07;;;2.38;;
28988;SDS011;16089;59.952;10.818;2022-11-30T03:23:49;4.97;;;2.70;;
28988;SDS011;16089;59.952;10.818;2022-11-30T03:26:16;4.82;;;2.30;;
28988;SDS011;16089;59.952;10.818;2022-11-30T03:28:42;4.90;;;2.92;;
28988;SDS011;16089;59.952;10.818;2022-11-30T03:31:09;4.82;;;2.60;;
28988;SDS011;16089;59.952;10.818;2022-11-30T03:33:35;4.72;;;2.78;;
28988;SDS011;16089;59.952;10.818;2022-11-30T03:36:03;4.45;;;2.88;;
28988;SDS011;16089;59.952;10.818;2022-11-30T03:38:29;4.97;;;2.90;;
28988;SDS011;16089;59.952;10.818;2022-11-30T03:41:01;4.55;;;2.70;;
28988;SDS011;16089;59.952;10.818;2022-11-30T03:43:27;3.88;;;2.25;;
28988;SDS011;16089;59.952;10.818;2022-11-30T03:45:54;4.53;;;2.50;;
28988;SDS011;16089;59.952;10.818;2022-11-30T03:48:20;4.68;;;2.90;;
28988;SDS011;16089;59.952;10.818;2022-11-30T03:50:47;5.15;;;2.67;;
28988;SDS011;16089;59.952;10.818;2022-11-30T03:53:14;5.55;;;2.60;;
28988;SDS011;16089;59.952;10.818;2022-11-30T03:55:40;4.57;;;2.70;;
28988;SDS011;16089;59.952;10.818;2022-11-30T03:58:08;4.13;;;2.33;;
28988;SDS011;16089;59.952;10.818;2022-11-30T04:00:34;4.38;;;2.50;;
28988;SDS011;16089;59.952;10.818;2022-11-30T04:03:01;4.35;;;2.42;;
28988;SDS011;16089;59.952;10.818;2022-11-30T04:05:27;4.80;;;2.35;;
28988;SDS011;16089;59.952;10.818;2022-11-30T04:07:53;4.07;;;2.40;;
28988;SDS011;16089;59.952;10.818;2022-11-30T04:10:20;4.78;;;2.40;;
28988;SDS011;16089;59.952;10.818;2022-11-30T04:12:47;5.10;;;2.78;;
28988;SDS011;16089;59.952;10.818;2022-11-30T04:15:15;4.05;;;2.30;;
28988;SDS011;16089;59.952;10.818;2022-11-30T04:17:41;4.32;;;2.25;;
28988;SDS011;16089;59.952;10.818;2022-11-30T04:20:08;4.60;;;2.45;;
28988;SDS011;16089;59.952;10.818;2022-11-30T04:22:34;3.47;;;2.00;;
28988;SDS011;16089;59.952;10.818;2022-11-30T04:25:01;4.15;;;2.42;;
28988;SDS011;16089;59.952;10.818;2022-11-30T04:27:27;4.50;;;2.38;;
28988;SDS011;16089;59.952;10.818;2022-11-30T04:29:53;3.92;;;2.50;;
28988;SDS011;16089;59.952;10.818;2022-11-30T04:32:21;3.25;;;1.83;;
28988;SDS011;16089;59.952;10.818;2022-11-30T04:34:47;4.63;;;2.65;;
28988;SDS011;16089;59.952;10.818;2022-11-30T04:37:14;4.53;;;2.65;;
28988;SDS011;16089;59.952;10.818;2022-11-30T04:39:40;4.47;;;2.47;;
28988;SDS011;16089;59.952;10.818;2022-11-30T04:42:06;3.65;;;2.03;;
28988;SDS011;16089;59.952;10.818;2022-11-30T04:44:33;4.72;;;2.70;;
28988;SDS011;16089;59.952;10.818;2022-11-30T04:46:59;4.25;;;2.33;;
28988;SDS011;16089;59.952;10.818;2022-11-30T04:49:27;4.18;;;2.13;;
28988;SDS011;16089;59.952;10.818;2022-11-30T04:51:53;4.13;;;2.30;;
28988;SDS011;16089;59.952;10.818;2022-11-30T04:54:19;3.63;;;2.08;;
28988;SDS011;16089;59.952;10.818;2022-11-30T04:56:45;3.50;;;2.03;;
28988;SDS011;16089;59.952;10.818;2022-11-30T04:59:12;4.63;;;2.53;;
28988;SDS011;16089;59.952;10.818;2022-11-30T05:01:38;3.30;;;1.90;;
28988;SDS011;16089;59.952;10.818;2022-11-30T05:04:05;3.50;;;1.80;;
28988;SDS011;16089;59.952;10.818;2022-11-30T05:06:32;3.67;;;1.77;;
28988;SDS011;16089;59.952;10.818;2022-11-30T05:08:59;3.53;;;2.03;;
28988;SDS011;16089;59.952;10.818;2022-11-30T05:11:25;3.30;;;1.70;;
28988;SDS011;16089;59.952;10.818;2022-11-30T05:13:51;3.40;;;1.83;;
28988;SDS011;16089;59.952;10.818;2022-11-30T05:16:18;4.25;;;2.40;;
28988;SDS011;16089;59.952;10.818;2022-11-30T05:18:44;5.90;;;2.20;;
28988;SDS011;16089;59.952;10.818;2022-11-30T05:21:10;5.63;;;2.33;;
28988;SDS011;16089;59.952;10.818;2022-11-30T05:23:38;6.28;;;3.15;;
28988;SDS011;16089;59.952;10.818;2022-11-30T05:26:04;4.05;;;2.10;;
28988;SDS011;16089;59.952;10.818;2022-11-30T05:28:30;3.40;;;1.90;;
28988;SDS011;16089;59.952;10.818;2022-11-30T05:31:00;4.40;;;2.47;;
28988;SDS011;16089;59.952;10.818;2022-11-30T05:33:27;3.47;;;1.90;;
28988;SDS011;16089;59.952;10.818;2022-11-30T05:35:53;2.90;;;1.65;;
28988;SDS011;16089;59.952;10.818;2022-11-30T05:38:19;4.82;;;2.72;;
28988;SDS011;16089;59.952;10.818;2022-11-30T05:40:47;4.40;;;2.20;;
28988;SDS011;16089;59.952;10.818;2022-11-30T05:43:13;2.90;;;1.60;;
28988;SDS011;16089;59.952;10.818;2022-11-30T05:45:40;4.65;;;2.13;;
28988;SDS011;16089;59.952;10.818;2022-11-30T05:48:06;4.65;;;2.63;;
28988;SDS011;16089;59.952;10.818;2022-11-30T05:50:32;3.42;;;1.70;;
28988;SDS011;16089;59.952;10.818;2022-11-30T05:52:59;3.78;;;2.05;;
28988;SDS011;16089;59.952;10.818;2022-11-30T05:55:26;5.03;;;2.20;;
28988;SDS011;16089;59.952;10.818;2022-11-30T05:57:54;3.17;;;1.80;;
28988;SDS011;16089;59.952;10.818;2022-11-30T06:00:20;3.97;;;1.88;;
28988;SDS011;16089;59.952;10.818;2022-11-30T06:02:46;3.22;;;1.80;;
28988;SDS011;16089;59.952;10.818;2022-11-30T06:05:13;2.85;;;1.60;;
28988;SDS011;16089;59.952;10.818;2022-11-30T06:07:39;2.90;;;1.73;;
28988;SDS011;16089;59.952;10.818;2022-11-30T06:10:06;3.17;;;1.70;;
28988;SDS011;16089;59.952;10.818;2022-11-30T06:12:32;2.83;;;1.50;;
28988;SDS011;16089;59.952;10.818;2022-11-30T06:15:00;2.50;;;1.60;;
28988;SDS011;16089;59.952;10.818;2022-11-30T06:17:27;3.38;;;1.80;;
28988;SDS011;16089;59.952;10.818;2022-11-30T06:19:53;3.50;;;1.80;;
28988;SDS011;16089;59.952;10.818;2022-11-30T06:22:20;4.72;;;1.70;;
28988;SDS011;16089;59.952;10.818;2022-11-30T06:24:46;3.15;;;1.50;;
28988;SDS011;16089;59.952;10.818;2022-11-30T06:27:12;2.45;;;1.40;;
28988;SDS011;16089;59.952;10.818;2022-11-30T06:29:38;3.20;;;1.80;;
28988;SDS011;16089;59.952;10.818;2022-11-30T06:32:06;3.30;;;1.95;;
28988;SDS011;16089;59.952;10.818;2022-11-30T06:34:33;4.32;;;1.80;;
28988;SDS011;16089;59.952;10.818;2022-11-30T06:36:59;3.75;;;2.05;;
28988;SDS011;16089;59.952;10.818;2022-11-30T06:39:25;2.50;;;1.42;;
28988;SDS011;16089;59.952;10.818;2022-11-30T06:41:51;2.83;;;1.67;;
28988;SDS011;16089;59.952;10.818;2022-11-30T06:44:18;2.78;;;1.70;;
28988;SDS011;16089;59.952;10.818;2022-11-30T06:46:45;3.50;;;1.80;;
28988;SDS011;16089;59.952;10.818;2022-11-30T06:49:12;3.40;;;1.70;;
28988;SDS011;16089;59.952;10.818;2022-11-30T06:51:39;3.20;;;1.83;;
28988;SDS011;16089;59.952;10.818;2022-11-30T06:54:06;3.70;;;1.90;;
28988;SDS011;16089;59.952;10.818;2022-11-30T06:56:33;3.85;;;2.20;;
28988;SDS011;16089;59.952;10.818;2022-11-30T06:58:59;4.22;;;2.00;;
28988;SDS011;16089;59.952;10.818;2022-11-30T07:01:25;3.42;;;1.90;;
28988;SDS011;16089;59.952;10.818;2022-11-30T07:03:52;4.57;;;2.00;;
28988;SDS011;16089;59.952;10.818;2022-11-30T07:06:19;5.22;;;2.33;;
28988;SDS011;16089;59.952;10.818;2022-11-30T07:08:46;4.30;;;2.30;;
28988;SDS011;16089;59.952;10.818;2022-11-30T07:11:13;4.10;;;2.22;;
28988;SDS011;16089;59.952;10.818;2022-11-30T07:13:40;3.63;;;2.17;;
28988;SDS011;16089;59.952;10.818;2022-11-30T07:16:07;4.57;;;2.55;;
28988;SDS011;16089;59.952;10.818;2022-11-30T07:18:34;4.18;;;2.45;;
28988;SDS011;16089;59.952;10.818;2022-11-30T07:21:01;4.07;;;2.38;;
28988;SDS011;16089;59.952;10.818;2022-11-30T07:23:29;4.65;;;1.98;;
28988;SDS011;16089;59.952;10.818;2022-11-30T07:26:13;3.17;;;1.67;;
28988;SDS011;16089;59.952;10.818;2022-11-30T07:28:40;3.55;;;1.85;;
28988;SDS011;16089;59.952;10.818;2022-11-30T07:31:13;5.95;;;2.10;;
28988;SDS011;16089;59.952;10.818;2022-11-30T07:33:40;4.07;;;2.17;;
28988;SDS011;16089;59.952;10.818;2022-11-30T07:36:06;3.80;;;1.90;;
28988;SDS011;16089;59.952;10.818;2022-11-30T07:38:34;3.55;;;2.00;;
28988;SDS011;16089;59.952;10.818;2022-11-30T07:41:01;4.25;;;2.22;;
28988;SDS011;16089;59.952;10.818;2022-11-30T07:43:27;5.30;;;2.72;;
28988;SDS011;16089;59.952;10.818;2022-11-30T07:45:53;4.32;;;2.47;;
28988;SDS011;16089;59.952;10.818;2022-11-30T07:48:20;4.97;;;2.55;;
28988;SDS011;16089;59.952;10.818;2022-11-30T07:50:46;4.00;;;2.17;;
28988;SDS011;16089;59.952;10.818;2022-11-30T07:53:13;3.72;;;2.00;;
28988;SDS011;16089;59.952;10.818;2022-11-30T07:55:41;3.47;;;1.83;;
28988;SDS011;16089;59.952;10.818;2022-11-30T07:58:07;3.42;;;2.20;;
28988;SDS011;16089;59.952;10.818;2022-11-30T08:00:35;4.97;;;2.63;;
28988;SDS011;16089;59.952;10.818;2022-11-30T08:03:01;4.40;;;2.30;;
28988;SDS011;16089;59.952;10.818;2022-11-30T08:05:27;3.60;;;2.10;;
28988;SDS011;16089;59.952;10.818;2022-11-30T08:07:54;4.13;;;2.13;;
28988;SDS011;16089;59.952;10.818;2022-11-30T08:10:20;3.78;;;2.05;;
28988;SDS011;16089;59.952;10.818;2022-11-30T08:12:48;3.58;;;2.08;;
28988;SDS011;16089;59.952;10.818;2022-11-30T08:15:15;3.20;;;1.42;;
28988;SDS011;16089;59.952;10.818;2022-11-30T08:17:41;4.13;;;1.63;;
28988;SDS011;16089;59.952;10.818;2022-11-30T08:20:08;4.22;;;1.80;;
28988;SDS011;16089;59.952;10.818;2022-11-30T08:22:35;3.05;;;1.58;;
28988;SDS011;16089;59.952;10.818;2022-11-30T08:25:02;4.20;;;2.13;;
28988;SDS011;16089;59.952;10.818;2022-11-30T08:27:28;3.38;;;1.83;;
28988;SDS011;16089;59.952;10.818;2022-11-30T08:29:56;3.40;;;1.90;;
28988;SDS011;16089;59.952;10.818;2022-11-30T08:32:22;3.95;;;2.30;;
28988;SDS011;16089;59.952;10.818;2022-11-30T08:34:48;3.55;;;2.17;;
28988;SDS011;16089;59.952;10.818;2022-11-30T08:37:14;3.63;;;2.20;;
28988;SDS011;16089;59.952;10.818;2022-11-30T08:39:41;3.55;;;2.10;;
28988;SDS011;16089;59.952;10.818;2022-11-30T08:42:07;3.67;;;2.10;;
28988;SDS011;16089;59.952;10.818;2022-11-30T08:44:33;3.65;;;2.10;;
28988;SDS011;16089;59.952;10.818;2022-11-30T08:47:01;3.42;;;1.98;;
28988;SDS011;16089;59.952;10.818;2022-11-30T08:49:27;3.78;;;2.10;;
28988;SDS011;16089;59.952;10.818;2022-11-30T08:51:54;4.90;;;2.50;;
28988;SDS011;16089;59.952;10.818;2022-11-30T08:54:21;3.30;;;2.08;;
28988;SDS011;16089;59.952;10.818;2022-11-30T08:56:47;3.80;;;1.92;;
28988;SDS011;16089;59.952;10.818;2022-11-30T08:59:13;3.60;;;1.83;;
28988;SDS011;16089;59.952;10.818;2022-11-30T09:01:40;3.75;;;2.10;;
28988;SDS011;16089;59.952;10.818;2022-11-30T09:04:08;5.97;;;2.70;;
28988;SDS011;16089;59.952;10.818;2022-11-30T09:06:34;4.32;;;2.30;;
28988;SDS011;16089;59.952;10.818;2022-11-30T09:09:00;4.97;;;2.35;;
28988;SDS011;16089;59.952;10.818;2022-11-30T09:11:27;4.30;;;2.33;;
28988;SDS011;16089;59.952;10.818;2022-11-30T09:13:54;4.40;;;2.55;;
28988;SDS011;16089;59.952;10.818;2022-11-30T09:16:21;4.03;;;2.22;;
28988;SDS011;16089;59.952;10.818;2022-11-30T09:18:47;4.65;;;2.33;;
28988;SDS011;16089;59.952;10.818;2022-11-30T09:21:16;4.00;;;2.25;;
28988;SDS011;16089;59.952;10.818;2022-11-30T09:23:43;6.05;;;2.25;;
28988;SDS011;16089;59.952;10.818;2022-11-30T09:26:11;4.22;;;2.60;;
28988;SDS011;16089;59.952;10.818;2022-11-30T09:28:37;4.03;;;2.40;;
28988;SDS011;16089;59.952;10.818;2022-11-30T09:31:05;4.25;;;2.42;;
28988;SDS011;16089;59.952;10.818;2022-11-30T09:33:32;5.18;;;2.85;;
28988;SDS011;16089;59.952;10.818;2022-11-30T09:35:59;4.45;;;2.42;;
28988;SDS011;16089;59.952;10.818;2022-11-30T09:38:30;4.30;;;2.72;;
28988;SDS011;16089;59.952;10.818;2022-11-30T09:41:01;5.57;;;2.58;;
28988;SDS011;16089;59.952;10.818;2022-11-30T09:43:35;4.53;;;2.53;;
28988;SDS011;16089;59.952;10.818;2022-11-30T09:46:06;3.70;;;2.35;;
28988;SDS011;16089;59.952;10.818;2022-11-30T09:48:46;4.30;;;2.58;;
28988;SDS011;16089;59.952;10.818;2022-11-30T09:51:16;7.57;;;2.95;;
28988;SDS011;16089;59.952;10.818;2022-11-30T09:53:46;3.65;;;2.28;;
28988;SDS011;16089;59.952;10.818;2022-11-30T09:56:17;4.47;;;2.58;;
28988;SDS011;16089;59.952;10.818;2022-11-30T09:58:45;4.28;;;2.70;;
28988;SDS011;16089;59.952;10.818;2022-11-30T10:01:15;5.85;;;2.22;;
28988;SDS011;16089;59.952;10.818;2022-11-30T10:03:42;3.60;;;2.00;;
28988;SDS011;16089;59.952;10.818;2022-11-30T10:06:08;3.22;;;2.08;;
28988;SDS011;16089;59.952;10.818;2022-11-30T10:08:43;3.92;;;2.20;;
28988;SDS011;16089;59.952;10.818;2022-11-30T10:11:17;4.90;;;2.58;;
28988;SDS011;16089;59.952;10.818;2022-11-30T10:13:49;3.92;;;2.28;;
28988;SDS011;16089;59.952;10.818;2022-11-30T10:16:22;3.05;;;1.83;;
28988;SDS011;16089;59.952;10.818;2022-11-30T10:18:51;3.55;;;2.15;;
28988;SDS011;16089;59.952;10.818;2022-11-30T10:21:25;3.67;;;2.00;;
28988;SDS011;16089;59.952;10.818;2022-11-30T10:24:01;4.28;;;1.80;;
28988;SDS011;16089;59.952;10.818;2022-11-30T10:26:31;4.18;;;2.15;;
28988;SDS011;16089;59.952;10.818;2022-11-30T10:29:00;3.28;;;1.77;;
28988;SDS011;16089;59.952;10.818;2022-11-30T10:31:31;3.60;;;1.85;;
28988;SDS011;16089;59.952;10.818;2022-11-30T10:34:01;4.97;;;1.83;;
28988;SDS011;16089;59.952;10.818;2022-11-30T10:36:28;3.97;;;2.00;;
28988;SDS011;16089;59.952;10.818;2022-11-30T10:38:59;3.53;;;1.90;;
28988;SDS011;16089;59.952;10.818;2022-11-30T10:41:27;3.65;;;2.10;;
28988;SDS011;16089;59.952;10.818;2022-11-30T10:43:57;4.18;;;2.47;;
28988;SDS011;16089;59.952;10.818;2022-11-30T10:46:26;4.38;;;2.50;;
28988;SDS011;16089;59.952;10.818;2022-11-30T10:48:54;3.90;;;2.35;;
28988;SDS011;16089;59.952;10.818;2022-11-30T10:51:21;5.07;;;2.63;;
28988;SDS011;16089;59.952;10.818;2022-11-30T10:53:48;4.63;;;2.63;;
28988;SDS011;16089;59.952;10.818;2022-11-30T10:56:14;6.00;;;2.55;;
28988;SDS011;16089;59.952;10.818;2022-11-30T10:58:43;3.70;;;2.22;;
28988;SDS011;16089;59.952;10.818;2022-11-30T11:01:27;4.93;;;2.80;;
28988;SDS011;16089;59.952;10.818;2022-11-30T11:04:03;6.15;;;3.08;;
28988;SDS011;16089;59.952;10.818;2022-11-30T11:06:32;5.88;;;3.40;;
28988;SDS011;16089;59.952;10.818;2022-11-30T11:08:58;7.55;;;3.22;;
28988;SDS011;16089;59.952;10.818;2022-11-30T11:11:50;7.47;;;3.20;;
28988;SDS011;16089;59.952;10.818;2022-11-30T11:14:18;5.70;;;3.45;;
28988;SDS011;16089;59.952;10.818;2022-11-30T11:16:56;7.57;;;3.70;;
28988;SDS011;16089;59.952;10.818;2022-11-30T11:19:23;4.90;;;3.13;;
28988;SDS011;16089;59.952;10.818;2022-11-30T11:21:50;5.90;;;3.67;;
28988;SDS011;16089;59.952;10.818;2022-11-30T11:24:17;5.30;;;3.22;;
28988;SDS011;16089;59.952;10.818;2022-11-30T11:26:47;5.88;;;3.50;;
28988;SDS011;16089;59.952;10.818;2022-11-30T11:29:19;6.40;;;4.00;;
28988;SDS011;16089;59.952;10.818;2022-11-30T11:31:56;6.50;;;3.47;;
28988;SDS011;16089;59.952;10.818;2022-11-30T11:34:31;5.38;;;3.50;;
28988;SDS011;16089;59.952;10.818;2022-11-30T11:37:03;5.50;;;3.60;;
28988;SDS011;16089;59.952;10.818;2022-11-30T11:39:30;4.53;;;2.72;;
28988;SDS011;16089;59.952;10.818;2022-11-30T11:41:56;4.70;;;2.88;;
28988;SDS011;16089;59.952;10.818;2022-11-30T11:44:24;5.60;;;3.30;;
28988;SDS011;16089;59.952;10.818;2022-11-30T11:46:52;4.97;;;2.83;;
28988;SDS011;16089;59.952;10.818;2022-11-30T11:49:22;5.95;;;2.85;;
28988;SDS011;16089;59.952;10.818;2022-11-30T11:51:57;4.60;;;2.75;;
28988;SDS011;16089;59.952;10.818;2022-11-30T11:54:24;5.20;;;3.20;;
28988;SDS011;16089;59.952;10.818;2022-11-30T11:56:53;8.05;;;3.47;;
28988;SDS011;16089;59.952;10.818;2022-11-30T11:59:21;5.78;;;2.83;;
28988;SDS011;16089;59.952;10.818;2022-11-30T12:01:49;4.50;;;2.63;;
28988;SDS011;16089;59.952;10.818;2022-11-30T12:04:34;4.55;;;2.40;;
28988;SDS011;16089;59.952;10.818;2022-11-30T12:07:03;5.22;;;2.42;;
28988;SDS011;16089;59.952;10.818;2022-11-30T12:09:35;5.18;;;2.92;;
28988;SDS011;16089;59.952;10.818;2022-11-30T12:12:04;5.53;;;2.95;;
28988;SDS011;16089;59.952;10.818;2022-11-30T12:14:31;4.18;;;2.30;;
28988;SDS011;16089;59.952;10.818;2022-11-30T12:17:02;3.95;;;2.50;;
28988;SDS011;16089;59.952;10.818;2022-11-30T12:19:35;3.75;;;2.20;;
28988;SDS011;16089;59.952;10.818;2022-11-30T12:22:06;4.07;;;2.28;;
28988;SDS011;16089;59.952;10.818;2022-11-30T12:24:46;4.53;;;2.58;;
28988;SDS011;16089;59.952;10.818;2022-11-30T12:27:18;4.07;;;2.40;;
28988;SDS011;16089;59.952;10.818;2022-11-30T12:29:47;4.88;;;2.80;;
28988;SDS011;16089;59.952;10.818;2022-11-30T12:32:19;4.43;;;2.70;;
28988;SDS011;16089;59.952;10.818;2022-11-30T12:34:54;3.60;;;2.03;;
28988;SDS011;16089;59.952;10.818;2022-11-30T12:37:25;4.18;;;2.47;;
28988;SDS011;16089;59.952;10.818;2022-11-30T12:39:56;5.55;;;3.20;;
28988;SDS011;16089;59.952;10.818;2022-11-30T12:42:27;4.15;;;2.58;;
28988;SDS011;16089;59.952;10.818;2022-11-30T12:44:58;3.97;;;2.20;;
28988;SDS011;16089;59.952;10.818;2022-11-30T12:47:35;6.28;;;2.70;;
28988;SDS011;16089;59.952;10.818;2022-11-30T12:50:15;4.78;;;2.80;;
28988;SDS011;16089;59.952;10.818;2022-11-30T12:52:45;4.32;;;2.70;;
28988;SDS011;16089;59.952;10.818;2022-11-30T12:55:17;4.43;;;2.63;;
28988;SDS011;16089;59.952;10.818;2022-11-30T12:57:46;4.70;;;2.25;;
28988;SDS011;16089;59.952;10.818;2022-11-30T13:00:16;4.53;;;2.50;;
28988;SDS011;16089;59.952;10.818;2022-11-30T13:05:36;4.25;;;2.47;;
28988;SDS011;16089;59.952;10.818;2022-11-30T13:08:06;5.47;;;2.50;;
28988;SDS011;16089;59.952;10.818;2022-11-30T13:10:39;4.13;;;2.35;;
28988;SDS011;16089;59.952;10.818;2022-11-30T13:13:07;3.90;;;2.42;;
28988;SDS011;16089;59.952;10.818;2022-11-30T13:15:35;4.35;;;2.30;;
28988;SDS011;16089;59.952;10.818;2022-11-30T13:18:01;4.88;;;2.45;;
28988;SDS011;16089;59.952;10.818;2022-11-30T13:20:31;4.50;;;2.45;;
28988;SDS011;16089;59.952;10.818;2022-11-30T13:23:02;4.63;;;2.47;;
28988;SDS011;16089;59.952;10.818;2022-11-30T13:25:31;5.70;;;2.75;;
28988;SDS011;16089;59.952;10.818;2022-11-30T13:28:02;3.97;;;2.38;;
28988;SDS011;16089;59.952;10.818;2022-11-30T13:30:33;4.47;;;2.38;;
28988;SDS011;16089;59.952;10.818;2022-11-30T13:35:52;4.30;;;2.58;;
28988;SDS011;16089;59.952;10.818;2022-11-30T13:38:20;3.65;;;2.03;;
28988;SDS011;16089;59.952;10.818;2022-11-30T13:40:53;3.90;;;2.22;;
28988;SDS011;16089;59.952;10.818;2022-11-30T13:43:20;5.18;;;2.75;;
28988;SDS011;16089;59.952;10.818;2022-11-30T13:45:46;4.32;;;2.50;;
28988;SDS011;16089;59.952;10.818;2022-11-30T13:48:25;4.10;;;2.40;;
28988;SDS011;16089;59.952;10.818;2022-11-30T13:50:54;5.10;;;2.42;;
28988;SDS011;16089;59.952;10.818;2022-11-30T13:53:24;4.55;;;2.53;;
28988;SDS011;16089;59.952;10.818;2022-11-30T13:55:52;5.03;;;2.58;;
28988;SDS011;16089;59.952;10.818;2022-11-30T13:58:20;5.13;;;3.00;;
28988;SDS011;16089;59.952;10.818;2022-11-30T14:00:58;4.43;;;2.60;;
28988;SDS011;16089;59.952;10.818;2022-11-30T14:03:26;5.25;;;2.90;;
28988;SDS011;16089;59.952;10.818;2022-11-30T14:05:53;5.00;;;2.88;;
28988;SDS011;16089;59.952;10.818;2022-11-30T14:13:50;5.20;;;2.80;;
28988;SDS011;16089;59.952;10.818;2022-11-30T14:16:20;5.20;;;2.92;;
28988;SDS011;16089;59.952;10.818;2022-11-30T14:18:47;6.07;;;3.05;;
28988;SDS011;16089;59.952;10.818;2022-11-30T14:21:20;4.03;;;2.53;;
28988;SDS011;16089;59.952;10.818;2022-11-30T14:23:49;5.18;;;2.80;;
28988;SDS011;16089;59.952;10.818;2022-11-30T14:26:20;5.53;;;3.20;;
28988;SDS011;16089;59.952;10.818;2022-11-30T14:28:50;4.97;;;3.00;;
28988;SDS011;16089;59.952;10.818;2022-11-30T14:31:19;5.18;;;2.85;;
28988;SDS011;16089;59.952;10.818;2022-11-30T14:33:47;4.70;;;2.90;;
28988;SDS011;16089;59.952;10.818;2022-11-30T14:36:14;5.03;;;3.03;;
28988;SDS011;16089;59.952;10.818;2022-11-30T14:38:41;4.97;;;2.75;;
28988;SDS011;16089;59.952;10.818;2022-11-30T14:41:17;7.65;;;3.08;;
28988;SDS011;16089;59.952;10.818;2022-11-30T14:43:57;5.03;;;3.00;;
28988;SDS011;16089;59.952;10.818;2022-11-30T14:46:24;5.18;;;2.88;;
28988;SDS011;16089;59.952;10.818;2022-11-30T14:49:02;5.10;;;2.90;;
28988;SDS011;16089;59.952;10.818;2022-11-30T14:51:28;4.40;;;2.70;;
28988;SDS011;16089;59.952;10.818;2022-11-30T14:53:55;5.32;;;3.20;;